sensor_id;sensor_type;location;lat;lon;timestamp;pressure;altitude;pressure_sealevel;temperature;humidity
17209;BME280;8720;48.488;9.202;2023-08-06T00:01:12;96320.84;;;20.53;62.38
17209;BME280;8720;48.488;9.202;2023-08-06T00:03:39;96323.50;;;20.53;62.46
17209;BME280;8720;48.488;9.202;2023-08-06T00:06:06;96326.50;;;20.49;62.41
17209;BME280;8720;48.488;9.202;2023-08-06T00:08:35;96324.19;;;20.44;62.55
17209;BME280;8720;48.488;9.202;2023-08-06T00:11:02;96317.50;;;20.39;62.23
17209;BME280;8720;48.488;9.202;2023-08-06T00:13:29;96316.16;;;20.33;62.06
17209;BME280;8720;48.488;9.202;2023-08-06T00:16:09;96315.75;;;20.27;62.33
17209;BME280;8720;48.488;9.202;2023-08-06T00:18:37;96315.53;;;20.17;62.23
17209;BME280;8720;48.488;9.202;2023-08-06T00:21:04;96313.25;;;20.13;62.30
17209;BME280;8720;48.488;9.202;2023-08-06T00:23:32;96307.41;;;20.08;62.73
17209;BME280;8720;48.488;9.202;2023-08-06T00:26:00;96294.69;;;20.00;62.35
17209;BME280;8720;48.488;9.202;2023-08-06T00:28:28;96296.72;;;19.97;62.63
17209;BME280;8720;48.488;9.202;2023-08-06T00:30:56;96301.53;;;19.91;62.26
17209;BME280;8720;48.488;9.202;2023-08-06T00:33:24;96314.25;;;19.86;62.40
17209;BME280;8720;48.488;9.202;2023-08-06T00:35:51;96318.09;;;19.82;62.51
17209;BME280;8720;48.488;9.202;2023-08-06T00:38:19;96310.47;;;19.78;62.45
17209;BME280;8720;48.488;9.202;2023-08-06T00:40:46;96306.34;;;19.74;62.69
17209;BME280;8720;48.488;9.202;2023-08-06T00:43:14;96300.50;;;19.69;62.55
17209;BME280;8720;48.488;9.202;2023-08-06T00:45:42;96302.63;;;19.64;62.36
17209;BME280;8720;48.488;9.202;2023-08-06T00:48:10;96299.56;;;19.57;62.38
17209;BME280;8720;48.488;9.202;2023-08-06T00:50:38;96287.69;;;19.50;62.50
17209;BME280;8720;48.488;9.202;2023-08-06T00:53:05;96285.28;;;19.47;62.61
17209;BME280;8720;48.488;9.202;2023-08-06T00:55:33;96279.53;;;19.41;62.30
17209;BME280;8720;48.488;9.202;2023-08-06T00:58:02;96285.16;;;19.36;62.67
17209;BME280;8720;48.488;9.202;2023-08-06T01:00:31;96275.78;;;19.31;62.59
17209;BME280;8720;48.488;9.202;2023-08-06T01:02:58;96276.13;;;19.26;62.51
17209;BME280;8720;48.488;9.202;2023-08-06T01:05:26;96278.13;;;19.23;62.50
17209;BME280;8720;48.488;9.202;2023-08-06T01:08:12;96276.75;;;19.17;62.82
17209;BME280;8720;48.488;9.202;2023-08-06T01:10:59;96291.19;;;19.13;62.41
17209;BME280;8720;48.488;9.202;2023-08-06T01:13:37;96286.22;;;19.09;62.32
17209;BME280;8720;48.488;9.202;2023-08-06T01:16:11;96293.63;;;19.03;62.34
17209;BME280;8720;48.488;9.202;2023-08-06T01:18:38;96286.63;;;19.02;62.35
17209;BME280;8720;48.488;9.202;2023-08-06T01:21:09;96286.94;;;18.98;62.37
17209;BME280;8720;48.488;9.202;2023-08-06T01:23:36;96285.38;;;18.95;62.11
17209;BME280;8720;48.488;9.202;2023-08-06T01:26:15;96283.03;;;18.91;62.48
17209;BME280;8720;48.488;9.202;2023-08-06T01:28:54;96283.22;;;18.88;62.38
17209;BME280;8720;48.488;9.202;2023-08-06T01:31:30;96280.78;;;18.85;62.29
17209;BME280;8720;48.488;9.202;2023-08-06T01:34:01;96276.66;;;18.81;62.23
17209;BME280;8720;48.488;9.202;2023-08-06T01:36:31;96268.38;;;18.73;62.26
17209;BME280;8720;48.488;9.202;2023-08-06T01:39:00;96272.50;;;18.77;62.60
17209;BME280;8720;48.488;9.202;2023-08-06T01:41:27;96268.25;;;18.74;62.30
17209;BME280;8720;48.488;9.202;2023-08-06T01:43:54;96268.38;;;18.73;62.50
17209;BME280;8720;48.488;9.202;2023-08-06T01:46:21;96267.63;;;18.71;62.62
17209;BME280;8720;48.488;9.202;2023-08-06T01:48:49;96256.28;;;18.69;62.48
17209;BME280;8720;48.488;9.202;2023-08-06T01:51:17;96259.03;;;18.67;62.32
17209;BME280;8720;48.488;9.202;2023-08-06T01:53:45;96262.72;;;18.65;62.35
17209;BME280;8720;48.488;9.202;2023-08-06T01:56:13;96259.66;;;18.58;62.13
17209;BME280;8720;48.488;9.202;2023-08-06T01:58:40;96256.16;;;18.58;62.63
17209;BME280;8720;48.488;9.202;2023-08-06T02:03:44;96249.38;;;18.54;62.44
17209;BME280;8720;48.488;9.202;2023-08-06T02:06:11;96251.28;;;18.52;62.44
17209;BME280;8720;48.488;9.202;2023-08-06T02:08:39;96242.41;;;18.53;62.61
17209;BME280;8720;48.488;9.202;2023-08-06T02:11:08;96245.22;;;18.50;62.12
17209;BME280;8720;48.488;9.202;2023-08-06T02:13:35;96240.16;;;18.47;62.40
17209;BME280;8720;48.488;9.202;2023-08-06T02:16:03;96235.16;;;18.42;62.49
17209;BME280;8720;48.488;9.202;2023-08-06T02:18:30;96243.19;;;18.41;62.03
17209;BME280;8720;48.488;9.202;2023-08-06T02:20:58;96233.53;;;18.40;62.58
17209;BME280;8720;48.488;9.202;2023-08-06T02:23:26;96232.78;;;18.38;62.52
17209;BME280;8720;48.488;9.202;2023-08-06T02:26:01;96233.00;;;18.35;62.57
17209;BME280;8720;48.488;9.202;2023-08-06T02:28:32;96234.88;;;18.33;62.60
17209;BME280;8720;48.488;9.202;2023-08-06T02:30:59;96232.47;;;18.30;62.20
17209;BME280;8720;48.488;9.202;2023-08-06T02:33:28;96225.56;;;18.27;62.32
17209;BME280;8720;48.488;9.202;2023-08-06T02:36:03;96227.88;;;18.19;62.08
17209;BME280;8720;48.488;9.202;2023-08-06T02:38:31;96229.47;;;18.22;62.38
17209;BME280;8720;48.488;9.202;2023-08-06T02:40:58;96214.63;;;18.19;62.29
17209;BME280;8720;48.488;9.202;2023-08-06T02:43:26;96212.09;;;18.17;62.61
17209;BME280;8720;48.488;9.202;2023-08-06T02:45:59;96201.69;;;18.14;62.41
17209;BME280;8720;48.488;9.202;2023-08-06T02:48:26;96203.63;;;18.12;62.68
17209;BME280;8720;48.488;9.202;2023-08-06T02:50:57;96204.56;;;18.11;62.62
17209;BME280;8720;48.488;9.202;2023-08-06T02:53:27;96197.56;;;18.10;62.66
17209;BME280;8720;48.488;9.202;2023-08-06T02:55:55;96201.91;;;18.11;63.05
17209;BME280;8720;48.488;9.202;2023-08-06T02:58:28;96194.06;;;18.10;62.92
17209;BME280;8720;48.488;9.202;2023-08-06T03:01:19;96184.22;;;18.12;62.95
17209;BME280;8720;48.488;9.202;2023-08-06T03:03:55;96188.44;;;18.14;63.14
17209;BME280;8720;48.488;9.202;2023-08-06T03:06:29;96175.03;;;18.17;63.06
17209;BME280;8720;48.488;9.202;2023-08-06T03:08:58;96183.50;;;18.23;62.97
17209;BME280;8720;48.488;9.202;2023-08-06T03:11:26;96169.09;;;18.27;63.09
17209;BME280;8720;48.488;9.202;2023-08-06T03:14:01;96172.50;;;18.29;62.69
17209;BME280;8720;48.488;9.202;2023-08-06T03:16:32;96172.31;;;18.32;63.24
17209;BME280;8720;48.488;9.202;2023-08-06T03:19:00;96172.94;;;18.35;62.95
17209;BME280;8720;48.488;9.202;2023-08-06T03:21:28;96160.56;;;18.36;62.83
17209;BME280;8720;48.488;9.202;2023-08-06T03:23:56;96165.41;;;18.42;63.19
17209;BME280;8720;48.488;9.202;2023-08-06T03:26:27;96165.13;;;18.46;62.90
17209;BME280;8720;48.488;9.202;2023-08-06T03:28:54;96167.56;;;18.49;63.28
17209;BME280;8720;48.488;9.202;2023-08-06T03:31:22;96176.06;;;18.54;63.23
17209;BME280;8720;48.488;9.202;2023-08-06T03:33:50;96173.09;;;18.59;63.10
17209;BME280;8720;48.488;9.202;2023-08-06T03:36:23;96162.69;;;18.56;62.93
17209;BME280;8720;48.488;9.202;2023-08-06T03:38:51;96180.28;;;18.69;63.08
17209;BME280;8720;48.488;9.202;2023-08-06T03:41:19;96182.63;;;18.74;63.05
17209;BME280;8720;48.488;9.202;2023-08-06T03:43:46;96177.00;;;18.78;63.08
17209;BME280;8720;48.488;9.202;2023-08-06T03:46:20;96179.34;;;18.83;62.93
17209;BME280;8720;48.488;9.202;2023-08-06T03:48:48;96178.91;;;18.89;63.03
17209;BME280;8720;48.488;9.202;2023-08-06T03:51:16;96168.81;;;18.94;62.77
17209;BME280;8720;48.488;9.202;2023-08-06T03:53:45;96165.00;;;18.98;62.72
17209;BME280;8720;48.488;9.202;2023-08-06T03:56:13;96175.28;;;19.02;62.93
17209;BME280;8720;48.488;9.202;2023-08-06T03:58:40;96185.34;;;19.10;62.65
17209;BME280;8720;48.488;9.202;2023-08-06T04:01:08;96183.31;;;19.14;63.01
17209;BME280;8720;48.488;9.202;2023-08-06T04:03:41;96190.97;;;19.18;62.83
17209;BME280;8720;48.488;9.202;2023-08-06T04:06:09;96197.94;;;19.19;63.10
17209;BME280;8720;48.488;9.202;2023-08-06T04:08:38;96207.72;;;19.19;63.04
17209;BME280;8720;48.488;9.202;2023-08-06T04:11:05;96204.22;;;19.18;63.07
17209;BME280;8720;48.488;9.202;2023-08-06T04:13:32;96200.81;;;19.16;63.23
17209;BME280;8720;48.488;9.202;2023-08-06T04:16:02;96197.44;;;19.14;63.02
17209;BME280;8720;48.488;9.202;2023-08-06T04:18:30;96198.59;;;19.10;63.14
17209;BME280;8720;48.488;9.202;2023-08-06T04:20:57;96188.22;;;19.07;63.54
17209;BME280;8720;48.488;9.202;2023-08-06T04:23:25;96178.88;;;19.01;63.46
17209;BME280;8720;48.488;9.202;2023-08-06T04:25:58;96178.88;;;19.01;63.58
17209;BME280;8720;48.488;9.202;2023-08-06T04:28:30;96179.09;;;18.98;63.62
17209;BME280;8720;48.488;9.202;2023-08-06T04:30:59;96174.84;;;18.96;63.79
17209;BME280;8720;48.488;9.202;2023-08-06T04:33:30;96177.63;;;18.94;64.09
17209;BME280;8720;48.488;9.202;2023-08-06T04:36:01;96183.91;;;18.93;64.21
17209;BME280;8720;48.488;9.202;2023-08-06T04:38:28;96176.78;;;18.94;64.29
17209;BME280;8720;48.488;9.202;2023-08-06T04:40:58;96178.47;;;18.95;63.89
17209;BME280;8720;48.488;9.202;2023-08-06T04:43:26;96199.31;;;19.25;62.63
17209;BME280;8720;48.488;9.202;2023-08-06T04:45:54;96194.66;;;19.16;62.93
17209;BME280;8720;48.488;9.202;2023-08-06T04:48:22;96199.47;;;19.11;63.28
17209;BME280;8720;48.488;9.202;2023-08-06T04:50:50;96203.28;;;19.07;63.04
17209;BME280;8720;48.488;9.202;2023-08-06T04:53:17;96199.16;;;19.02;63.23
17209;BME280;8720;48.488;9.202;2023-08-06T04:55:45;96195.00;;;18.98;63.61
17209;BME280;8720;48.488;9.202;2023-08-06T04:58:13;96188.84;;;18.98;63.59
17209;BME280;8720;48.488;9.202;2023-08-06T05:00:41;96191.50;;;18.98;63.28
17209;BME280;8720;48.488;9.202;2023-08-06T05:03:08;96194.16;;;18.98;63.31
17209;BME280;8720;48.488;9.202;2023-08-06T05:05:36;96202.09;;;18.98;63.72
17209;BME280;8720;48.488;9.202;2023-08-06T05:08:03;96195.88;;;18.99;63.15
17209;BME280;8720;48.488;9.202;2023-08-06T05:10:30;96195.75;;;19.00;63.10
17209;BME280;8720;48.488;9.202;2023-08-06T05:12:58;96198.41;;;19.00;63.21
17209;BME280;8720;48.488;9.202;2023-08-06T05:15:26;96195.63;;;19.02;63.41
17209;BME280;8720;48.488;9.202;2023-08-06T05:17:54;96194.47;;;19.06;63.62
17209;BME280;8720;48.488;9.202;2023-08-06T05:20:24;96184.69;;;19.19;63.91
17209;BME280;8720;48.488;9.202;2023-08-06T05:22:51;96192.41;;;19.47;64.27
17209;BME280;8720;48.488;9.202;2023-08-06T05:25:20;96192.25;;;19.85;64.25
17209;BME280;8720;48.488;9.202;2023-08-06T05:27:47;96193.72;;;20.13;63.49
17209;BME280;8720;48.488;9.202;2023-08-06T05:30:15;96186.09;;;20.32;63.24
17209;BME280;8720;48.488;9.202;2023-08-06T05:32:43;96184.19;;;20.45;62.69
17209;BME280;8720;48.488;9.202;2023-08-06T05:35:11;96203.06;;;20.53;62.81
17209;BME280;8720;48.488;9.202;2023-08-06T05:37:38;96200.91;;;20.58;61.94
17209;BME280;8720;48.488;9.202;2023-08-06T05:40:06;96205.75;;;20.64;62.12
17209;BME280;8720;48.488;9.202;2023-08-06T05:42:34;96210.59;;;20.70;61.92
17209;BME280;8720;48.488;9.202;2023-08-06T05:45:01;96206.75;;;20.74;61.84
17209;BME280;8720;48.488;9.202;2023-08-06T05:47:28;96205.75;;;20.75;61.23
17209;BME280;8720;48.488;9.202;2023-08-06T05:49:57;96209.16;;;20.77;61.32
17209;BME280;8720;48.488;9.202;2023-08-06T05:52:24;96214.13;;;20.93;61.30
17209;BME280;8720;48.488;9.202;2023-08-06T05:54:51;96213.81;;;21.08;61.43
17209;BME280;8720;48.488;9.202;2023-08-06T05:57:19;96210.56;;;21.16;60.93
17209;BME280;8720;48.488;9.202;2023-08-06T05:59:46;96213.94;;;21.18;60.49
17209;BME280;8720;48.488;9.202;2023-08-06T06:02:13;96212.25;;;21.17;59.93
17209;BME280;8720;48.488;9.202;2023-08-06T06:04:41;96221.19;;;21.16;59.73
17209;BME280;8720;48.488;9.202;2023-08-06T06:07:09;96226.78;;;21.13;59.85
17209;BME280;8720;48.488;9.202;2023-08-06T06:09:37;96226.16;;;21.09;59.54
17209;BME280;8720;48.488;9.202;2023-08-06T06:12:06;96236.44;;;21.03;59.77
17209;BME280;8720;48.488;9.202;2023-08-06T06:14:33;96229.88;;;20.96;59.71
17209;BME280;8720;48.488;9.202;2023-08-06T06:17:01;96219.09;;;20.86;59.73
17209;BME280;8720;48.488;9.202;2023-08-06T06:19:28;96226.56;;;20.81;59.67
17209;BME280;8720;48.488;9.202;2023-08-06T06:21:55;96225.09;;;20.77;59.94
17209;BME280;8720;48.488;9.202;2023-08-06T06:24:25;96229.47;;;20.78;59.83
17209;BME280;8720;48.488;9.202;2023-08-06T06:26:52;96228.28;;;20.82;60.55
17209;BME280;8720;48.488;9.202;2023-08-06T06:29:19;96240.13;;;20.89;60.70
17209;BME280;8720;48.488;9.202;2023-08-06T06:31:47;96236.84;;;20.97;60.56
17209;BME280;8720;48.488;9.202;2023-08-06T06:34:14;96243.53;;;21.02;60.25
17209;BME280;8720;48.488;9.202;2023-08-06T06:36:41;96233.63;;;21.04;60.43
17209;BME280;8720;48.488;9.202;2023-08-06T06:39:08;96239.22;;;21.01;60.02
17209;BME280;8720;48.488;9.202;2023-08-06T06:41:37;96242.59;;;21.03;60.05
17209;BME280;8720;48.488;9.202;2023-08-06T06:44:13;96239.94;;;21.03;59.67
17209;BME280;8720;48.488;9.202;2023-08-06T06:46:40;96244.28;;;21.04;59.55
17209;BME280;8720;48.488;9.202;2023-08-06T06:49:08;96238.97;;;21.04;59.43
17209;BME280;8720;48.488;9.202;2023-08-06T06:51:35;96230.88;;;21.06;59.86
17209;BME280;8720;48.488;9.202;2023-08-06T06:54:02;96240.66;;;21.05;59.95
17209;BME280;8720;48.488;9.202;2023-08-06T06:56:30;96238.75;;;21.07;59.79
17209;BME280;8720;48.488;9.202;2023-08-06T06:58:58;96245.38;;;21.13;59.70
17209;BME280;8720;48.488;9.202;2023-08-06T07:01:25;96251.56;;;21.13;59.78
17209;BME280;8720;48.488;9.202;2023-08-06T07:03:53;96245.38;;;21.13;59.66
17209;BME280;8720;48.488;9.202;2023-08-06T07:06:20;96250.09;;;21.09;59.41
17209;BME280;8720;48.488;9.202;2023-08-06T07:08:47;96238.59;;;21.09;59.30
17209;BME280;8720;48.488;9.202;2023-08-06T07:11:15;96249.00;;;21.12;59.83
17209;BME280;8720;48.488;9.202;2023-08-06T07:13:42;96250.59;;;21.14;59.85
17209;BME280;8720;48.488;9.202;2023-08-06T07:16:11;96246.47;;;21.21;60.01
17209;BME280;8720;48.488;9.202;2023-08-06T07:18:38;96242.84;;;21.22;60.28
17209;BME280;8720;48.488;9.202;2023-08-06T07:21:05;96252.53;;;21.34;60.03
17209;BME280;8720;48.488;9.202;2023-08-06T07:23:32;96262.06;;;21.37;59.64
17209;BME280;8720;48.488;9.202;2023-08-06T07:26:00;96255.31;;;21.33;59.50
17209;BME280;8720;48.488;9.202;2023-08-06T07:28:27;96261.13;;;21.27;59.81
17209;BME280;8720;48.488;9.202;2023-08-06T07:30:54;96251.06;;;21.19;60.08
17209;BME280;8720;48.488;9.202;2023-08-06T07:33:23;96258.81;;;21.11;59.57
17209;BME280;8720;48.488;9.202;2023-08-06T07:35:50;96259.50;;;21.02;59.50
17209;BME280;8720;48.488;9.202;2023-08-06T07:38:17;96260.31;;;20.92;59.52
17209;BME280;8720;48.488;9.202;2023-08-06T07:40:45;96260.91;;;20.84;59.81
17209;BME280;8720;48.488;9.202;2023-08-06T07:43:12;96257.97;;;20.76;59.63
17209;BME280;8720;48.488;9.202;2023-08-06T07:45:39;96263.75;;;20.70;59.91
17209;BME280;8720;48.488;9.202;2023-08-06T07:48:07;96266.75;;;20.65;60.61
17209;BME280;8720;48.488;9.202;2023-08-06T07:50:35;96260.72;;;20.63;60.69
17209;BME280;8720;48.488;9.202;2023-08-06T07:53:03;96264.22;;;20.64;60.44
17209;BME280;8720;48.488;9.202;2023-08-06T07:55:30;96265.81;;;20.66;60.49
17209;BME280;8720;48.488;9.202;2023-08-06T07:57:57;96263.75;;;20.70;60.69
17209;BME280;8720;48.488;9.202;2023-08-06T08:00:25;96271.50;;;20.73;60.55
17209;BME280;8720;48.488;9.202;2023-08-06T08:02:52;96274.88;;;20.75;60.43
17209;BME280;8720;48.488;9.202;2023-08-06T08:05:22;96274.88;;;20.75;60.44
17209;BME280;8720;48.488;9.202;2023-08-06T08:07:51;96266.81;;;20.76;60.12
17209;BME280;8720;48.488;9.202;2023-08-06T08:10:18;96266.56;;;20.79;60.34
17209;BME280;8720;48.488;9.202;2023-08-06T08:12:45;96277.81;;;20.83;59.98
17209;BME280;8720;48.488;9.202;2023-08-06T08:15:13;96275.16;;;20.83;60.04
17209;BME280;8720;48.488;9.202;2023-08-06T08:17:40;96269.72;;;20.84;59.98
17209;BME280;8720;48.488;9.202;2023-08-06T08:20:08;96273.94;;;20.87;60.01
17209;BME280;8720;48.488;9.202;2023-08-06T08:22:36;96271.81;;;20.92;60.51
17209;BME280;8720;48.488;9.202;2023-08-06T08:25:05;96272.53;;;20.94;60.22
17209;BME280;8720;48.488;9.202;2023-08-06T08:27:33;96275.19;;;20.94;60.11
17209;BME280;8720;48.488;9.202;2023-08-06T08:30:00;96271.81;;;20.92;59.93
17209;BME280;8720;48.488;9.202;2023-08-06T08:32:27;96273.75;;;20.90;60.03
17209;BME280;8720;48.488;9.202;2023-08-06T08:34:55;96266.97;;;20.86;60.08
17209;BME280;8720;48.488;9.202;2023-08-06T08:37:23;96276.69;;;21.09;56.69
17209;BME280;8720;48.488;9.202;2023-08-06T08:39:50;96267.09;;;20.96;58.45
17209;BME280;8720;48.488;9.202;2023-08-06T08:42:19;96270.44;;;20.87;58.77
17209;BME280;8720;48.488;9.202;2023-08-06T08:44:47;96268.88;;;20.84;59.21
17209;BME280;8720;48.488;9.202;2023-08-06T08:47:15;96273.00;;;20.88;60.14
17209;BME280;8720;48.488;9.202;2023-08-06T08:49:44;96273.97;;;20.98;60.20
17209;BME280;8720;48.488;9.202;2023-08-06T08:52:14;96271.88;;;21.14;60.04
17209;BME280;8720;48.488;9.202;2023-08-06T08:54:43;96271.66;;;21.28;60.02
17209;BME280;8720;48.488;9.202;2023-08-06T08:57:11;96278.69;;;21.40;59.44
17209;BME280;8720;48.488;9.202;2023-08-06T08:59:40;96278.06;;;21.48;59.44
17209;BME280;8720;48.488;9.202;2023-08-06T09:02:12;96286.53;;;21.53;59.38
17209;BME280;8720;48.488;9.202;2023-08-06T09:04:42;96276.88;;;21.52;59.39
17209;BME280;8720;48.488;9.202;2023-08-06T09:07:16;96286.88;;;21.48;58.71
17209;BME280;8720;48.488;9.202;2023-08-06T09:09:49;96296.06;;;21.44;58.75
17209;BME280;8720;48.488;9.202;2023-08-06T09:12:17;96295.25;;;21.44;58.85
17209;BME280;8720;48.488;9.202;2023-08-06T09:14:46;96300.91;;;21.39;58.88
17209;BME280;8720;48.488;9.202;2023-08-06T09:17:13;96308.53;;;21.33;58.74
17209;BME280;8720;48.488;9.202;2023-08-06T09:19:46;96297.28;;;21.29;59.16
17209;BME280;8720;48.488;9.202;2023-08-06T09:22:15;96306.13;;;21.41;59.39
17209;BME280;8720;48.488;9.202;2023-08-06T09:24:43;96306.38;;;21.60;60.35
17209;BME280;8720;48.488;9.202;2023-08-06T09:27:11;96298.88;;;21.87;59.89
17209;BME280;8720;48.488;9.202;2023-08-06T09:29:44;96305.25;;;22.18;59.84
17209;BME280;8720;48.488;9.202;2023-08-06T09:32:13;96301.44;;;22.42;59.67
17209;BME280;8720;48.488;9.202;2023-08-06T09:34:41;96295.81;;;22.68;59.19
17209;BME280;8720;48.488;9.202;2023-08-06T09:37:10;96302.78;;;23.00;59.58
17209;BME280;8720;48.488;9.202;2023-08-06T09:39:39;96300.69;;;23.24;58.22
17209;BME280;8720;48.488;9.202;2023-08-06T09:42:07;96291.72;;;23.46;58.34
17209;BME280;8720;48.488;9.202;2023-08-06T09:44:34;96296.16;;;23.66;57.73
17209;BME280;8720;48.488;9.202;2023-08-06T09:47:03;96292.88;;;23.83;57.76
17209;BME280;8720;48.488;9.202;2023-08-06T09:49:42;96299.94;;;23.94;56.73
17209;BME280;8720;48.488;9.202;2023-08-06T09:52:12;96299.09;;;23.93;56.75
17209;BME280;8720;48.488;9.202;2023-08-06T09:54:40;96300.19;;;23.81;56.37
17209;BME280;8720;48.488;9.202;2023-08-06T09:57:11;96315.28;;;23.62;56.16
17209;BME280;8720;48.488;9.202;2023-08-06T09:59:40;96322.47;;;23.40;56.47
17209;BME280;8720;48.488;9.202;2023-08-06T10:02:13;96316.72;;;23.24;56.42
17209;BME280;8720;48.488;9.202;2023-08-06T10:04:44;96319.47;;;23.13;56.80
17209;BME280;8720;48.488;9.202;2023-08-06T10:07:13;96320.81;;;23.08;57.07
17209;BME280;8720;48.488;9.202;2023-08-06T10:09:40;96319.63;;;23.01;57.41
17209;BME280;8720;48.488;9.202;2023-08-06T10:12:07;96325.16;;;22.88;56.74
17209;BME280;8720;48.488;9.202;2023-08-06T10:14:37;96326.69;;;22.70;57.15
17209;BME280;8720;48.488;9.202;2023-08-06T10:17:06;96324.09;;;22.48;57.33
17209;BME280;8720;48.488;9.202;2023-08-06T10:19:35;96321.34;;;22.27;57.59
17209;BME280;8720;48.488;9.202;2023-08-06T10:22:10;96321.97;;;22.09;57.75
17209;BME280;8720;48.488;9.202;2023-08-06T10:24:50;96318.25;;;21.89;58.01
17209;BME280;8720;48.488;9.202;2023-08-06T10:27:29;96330.09;;;21.74;57.79
17209;BME280;8720;48.488;9.202;2023-08-06T10:30:23;96327.91;;;21.57;58.66
17209;BME280;8720;48.488;9.202;2023-08-06T10:32:52;96331.06;;;21.51;58.84
17209;BME280;8720;48.488;9.202;2023-08-06T10:35:36;96337.56;;;21.47;59.17
17209;BME280;8720;48.488;9.202;2023-08-06T10:38:05;96335.91;;;21.46;59.09
17209;BME280;8720;48.488;9.202;2023-08-06T10:40:34;96341.31;;;21.44;58.94
17209;BME280;8720;48.488;9.202;2023-08-06T10:43:02;96335.50;;;21.39;59.64
17209;BME280;8720;48.488;9.202;2023-08-06T10:45:35;96338.56;;;21.46;59.33
17209;BME280;8720;48.488;9.202;2023-08-06T10:48:03;96343.03;;;21.45;59.25
17209;BME280;8720;48.488;9.202;2023-08-06T10:50:32;96346.28;;;21.49;60.06
17209;BME280;8720;48.488;9.202;2023-08-06T10:53:05;96347.75;;;21.53;59.74
17209;BME280;8720;48.488;9.202;2023-08-06T10:55:33;96354.53;;;21.57;59.53
17209;BME280;8720;48.488;9.202;2023-08-06T10:58:01;96354.06;;;21.63;60.26
17209;BME280;8720;48.488;9.202;2023-08-06T11:00:29;96359.72;;;21.69;60.13
17209;BME280;8720;48.488;9.202;2023-08-06T11:02:57;96353.94;;;21.76;59.93
17209;BME280;8720;48.488;9.202;2023-08-06T11:05:24;96360.53;;;21.83;59.53
17209;BME280;8720;48.488;9.202;2023-08-06T11:07:53;96357.47;;;21.87;60.48
17209;BME280;8720;48.488;9.202;2023-08-06T11:10:20;96370.66;;;21.89;59.76
17209;BME280;8720;48.488;9.202;2023-08-06T11:12:48;96366.19;;;21.89;59.88
17209;BME280;8720;48.488;9.202;2023-08-06T11:15:15;96376.25;;;21.86;59.25
17209;BME280;8720;48.488;9.202;2023-08-06T11:17:42;96374.16;;;21.78;59.63
17209;BME280;8720;48.488;9.202;2023-08-06T11:20:10;96375.63;;;21.71;59.47
17209;BME280;8720;48.488;9.202;2023-08-06T11:22:38;96382.50;;;21.62;59.67
17209;BME280;8720;48.488;9.202;2023-08-06T11:25:08;96384.78;;;21.56;59.13
17209;BME280;8720;48.488;9.202;2023-08-06T11:27:35;96384.63;;;21.46;59.63
17209;BME280;8720;48.488;9.202;2023-08-06T11:30:03;96384.41;;;21.38;59.71
17209;BME280;8720;48.488;9.202;2023-08-06T11:32:31;96382.41;;;21.29;59.94
17209;BME280;8720;48.488;9.202;2023-08-06T11:35:09;96387.72;;;21.18;59.74
17209;BME280;8720;48.488;9.202;2023-08-06T11:37:39;96375.88;;;21.11;60.19
17209;BME280;8720;48.488;9.202;2023-08-06T11:40:14;96378.13;;;21.05;60.51
17209;BME280;8720;48.488;9.202;2023-08-06T11:42:42;96370.69;;;20.97;60.23
17209;BME280;8720;48.488;9.202;2023-08-06T11:45:10;96372.00;;;20.92;60.80
17209;BME280;8720;48.488;9.202;2023-08-06T11:47:39;96372.72;;;20.83;61.00
17209;BME280;8720;48.488;9.202;2023-08-06T11:50:08;96393.13;;;20.82;61.31
17209;BME280;8720;48.488;9.202;2023-08-06T11:52:39;96401.31;;;20.79;61.24
17209;BME280;8720;48.488;9.202;2023-08-06T11:55:10;96403.34;;;20.75;61.71
17209;BME280;8720;48.488;9.202;2023-08-06T11:57:39;96406.75;;;20.77;61.91
17209;BME280;8720;48.488;9.202;2023-08-06T12:00:11;96395.03;;;20.80;62.00
17209;BME280;8720;48.488;9.202;2023-08-06T12:02:39;96400.13;;;20.83;62.16
17209;BME280;8720;48.488;9.202;2023-08-06T12:05:12;96401.47;;;20.89;62.55
17209;BME280;8720;48.488;9.202;2023-08-06T12:07:44;96417.94;;;20.94;62.25
17209;BME280;8720;48.488;9.202;2023-08-06T12:10:14;96416.75;;;20.98;62.40
17209;BME280;8720;48.488;9.202;2023-08-06T12:12:42;96408.25;;;20.93;62.37
17209;BME280;8720;48.488;9.202;2023-08-06T12:15:10;96422.47;;;21.04;61.99
17209;BME280;8720;48.488;9.202;2023-08-06T12:17:38;96430.00;;;21.10;62.31
17209;BME280;8720;48.488;9.202;2023-08-06T12:20:08;96427.75;;;21.17;61.97
17209;BME280;8720;48.488;9.202;2023-08-06T12:22:36;96437.94;;;21.23;62.02
17209;BME280;8720;48.488;9.202;2023-08-06T12:25:07;96443.13;;;21.24;61.57
17209;BME280;8720;48.488;9.202;2023-08-06T12:27:39;96450.38;;;21.22;61.08
17209;BME280;8720;48.488;9.202;2023-08-06T12:30:07;96448.91;;;21.18;61.13
17209;BME280;8720;48.488;9.202;2023-08-06T12:32:35;96454.22;;;21.18;61.48
17209;BME280;8720;48.488;9.202;2023-08-06T12:35:03;96449.66;;;21.20;61.30
17209;BME280;8720;48.488;9.202;2023-08-06T12:37:33;96460.69;;;21.27;61.62
17209;BME280;8720;48.488;9.202;2023-08-06T12:40:00;96460.13;;;21.34;61.30
17209;BME280;8720;48.488;9.202;2023-08-06T12:42:28;96467.63;;;21.40;61.03
17209;BME280;8720;48.488;9.202;2023-08-06T12:44:57;96468.75;;;21.49;61.13
17209;BME280;8720;48.488;9.202;2023-08-06T12:47:25;96469.13;;;21.55;60.92
17209;BME280;8720;48.488;9.202;2023-08-06T12:49:52;96446.50;;;21.61;60.75
17209;BME280;8720;48.488;9.202;2023-08-06T12:52:19;96472.06;;;21.63;60.04
17209;BME280;8720;48.488;9.202;2023-08-06T12:54:47;96471.81;;;21.66;59.76
17209;BME280;8720;48.488;9.202;2023-08-06T12:57:14;96474.47;;;21.66;59.28
17209;BME280;8720;48.488;9.202;2023-08-06T12:59:41;96471.94;;;21.65;59.59
17209;BME280;8720;48.488;9.202;2023-08-06T13:02:10;96475.44;;;21.65;58.47
17209;BME280;8720;48.488;9.202;2023-08-06T13:04:37;96475.69;;;21.62;58.56
17209;BME280;8720;48.488;9.202;2023-08-06T13:07:05;96486.31;;;21.62;58.72
17209;BME280;8720;48.488;9.202;2023-08-06T13:09:33;96473.88;;;21.63;58.51
17209;BME280;8720;48.488;9.202;2023-08-06T13:12:00;96474.72;;;21.63;58.63
17209;BME280;8720;48.488;9.202;2023-08-06T13:14:32;96475.69;;;21.62;58.39
17209;BME280;8720;48.488;9.202;2023-08-06T13:16:59;96483.53;;;21.64;58.36
17209;BME280;8720;48.488;9.202;2023-08-06T13:19:28;96487.53;;;21.69;58.20
17209;BME280;8720;48.488;9.202;2023-08-06T13:22:04;96477.16;;;21.78;57.62